Time;durP1;ratioP1;P1;durP2;ratioP2;P2;SDS_P1;SDS_P2;PMS_P1;PMS_P2;Temp;Humidity;BMP_temperature;BMP_pressure;BME280_temperature;BME280_humidity;BME280_pressure;Samples;Min_cycle;Max_cycle;Signal;HPM_P1;HPM_P2
2023/11/09 00:00:00;;;;;;;3.20;3.00;;;4.80;99.90;;;;;;5059562;28;20202;-76
2023/11/09 00:02:27;;;;;;;2.97;2.78;;;4.70;99.90;;;;;;5058872;28;20206;-74
2023/11/09 00:04:54;;;;;;;2.85;2.75;;;4.70;99.90;;;;;;5057270;28;20202;-76
2023/11/09 00:07:23;;;;;;;2.80;2.70;;;4.70;99.90;;;;;;5057723;28;20206;-74
2023/11/09 00:09:52;;;;;;;3.15;2.88;;;4.60;99.90;;;;;;5057360;28;20275;-75
2023/11/09 00:12:20;;;;;;;3.20;3.00;;;4.60;99.90;;;;;;5061543;28;20206;-74
2023/11/09 00:14:49;;;;;;;3.35;3.15;;;4.60;99.90;;;;;;5060107;28;20569;-76
2023/11/09 00:17:19;;;;;;;2.75;2.65;;;4.60;99.90;;;;;;5059499;28;20712;-75
2023/11/09 00:19:46;;;;;;;3.15;2.95;;;4.50;99.90;;;;;;5059501;28;20669;-75
2023/11/09 00:22:13;;;;;;;3.08;2.97;;;4.50;99.90;;;;;;5056938;28;20252;-76
2023/11/09 00:24:40;;;;;;;2.75;2.65;;;4.50;99.90;;;;;;5059300;28;20323;-75
2023/11/09 00:27:07;;;;;;;3.10;2.90;;;4.50;99.90;;;;;;5056025;28;20197;-75
2023/11/09 00:29:35;;;;;;;2.90;2.63;;;4.50;99.90;;;;;;5055870;28;20259;-75
2023/11/09 00:32:04;;;;;;;3.00;2.83;;;4.50;99.90;;;;;;5060341;28;20556;-75
2023/11/09 00:34:31;;;;;;;4.20;3.80;;;4.40;99.90;;;;;;5056272;28;20225;-75
2023/11/09 00:37:00;;;;;;;3.97;3.67;;;4.40;99.90;;;;;;5058686;28;20553;-76
2023/11/09 00:39:30;;;;;;;3.85;3.55;;;4.40;99.90;;;;;;5057896;28;20206;-75
2023/11/09 00:41:57;;;;;;;3.78;3.58;;;4.40;99.90;;;;;;5056336;28;20218;-76
2023/11/09 00:44:24;;;;;;;3.75;3.45;;;4.40;99.90;;;;;;5056179;28;20271;-75
2023/11/09 00:46:51;;;;;;;3.53;3.33;;;4.30;99.90;;;;;;5058301;28;20896;-75
2023/11/09 00:49:19;;;;;;;3.45;3.25;;;4.30;99.90;;;;;;5053509;28;20191;-75
2023/11/09 00:51:46;;;;;;;3.90;3.60;;;4.30;99.90;;;;;;5056701;28;20202;-75
2023/11/09 00:54:13;;;;;;;3.83;3.55;;;4.30;99.90;;;;;;5059455;28;20229;-75
2023/11/09 00:56:40;;;;;;;3.33;3.13;;;4.20;99.90;;;;;;5057933;28;20575;-75
2023/11/09 00:59:07;;;;;;;3.22;3.03;;;4.20;99.90;;;;;;5060415;28;20706;-74
2023/11/09 01:01:34;;;;;;;3.38;3.17;;;4.20;99.90;;;;;;5052161;28;20589;-75
2023/11/09 01:04:01;;;;;;;2.88;2.67;;;4.20;99.90;;;;;;5058696;28;20268;-75
2023/11/09 01:06:30;;;;;;;3.13;2.92;;;4.20;99.90;;;;;;5060617;28;20252;-76
2023/11/09 01:08:57;;;;;;;3.28;3.08;;;4.20;99.90;;;;;;5060570;28;20203;-75
2023/11/09 01:11:25;;;;;;;3.40;3.17;;;4.20;99.90;;;;;;5053813;28;20210;-74
2023/11/09 01:13:53;;;;;;;3.72;3.53;;;4.20;99.90;;;;;;5057192;28;20263;-76
2023/11/09 01:16:20;;;;;;;3.50;3.30;;;4.20;99.90;;;;;;5055053;28;20286;-74
2023/11/09 01:18:47;;;;;;;2.92;2.72;;;4.20;99.90;;;;;;5057693;28;20210;-74
2023/11/09 01:21:14;;;;;;;2.97;2.78;;;4.20;99.90;;;;;;5054994;28;20206;-75
2023/11/09 01:23:43;;;;;;;2.90;2.80;;;4.10;99.90;;;;;;5059805;28;20214;-75
2023/11/09 01:26:10;;;;;;;3.10;2.95;;;4.10;99.90;;;;;;5059594;28;20287;-76
2023/11/09 01:28:37;;;;;;;3.10;3.00;;;4.20;99.90;;;;;;5057520;28;20249;-75
2023/11/09 01:31:04;;;;;;;3.05;2.92;;;4.10;99.90;;;;;;5057058;28;20262;-76
2023/11/09 01:33:31;;;;;;;3.30;3.10;;;4.20;99.90;;;;;;5056388;28;20260;-75
2023/11/09 01:35:58;;;;;;;2.80;2.70;;;4.20;99.90;;;;;;5055527;28;20930;-74
2023/11/09 01:38:26;;;;;;;2.80;2.70;;;4.20;99.90;;;;;;5058796;28;20205;-74
2023/11/09 01:40:55;;;;;;;2.88;2.78;;;4.20;99.90;;;;;;5056687;28;20202;-75
2023/11/09 01:43:22;;;;;;;3.67;3.47;;;4.20;99.90;;;;;;5055637;28;20210;-75
2023/11/09 01:45:52;;;;;;;3.08;2.90;;;4.20;99.90;;;;;;5057910;28;20319;-74
2023/11/09 01:48:21;;;;;;;2.70;2.60;;;4.20;99.90;;;;;;5056881;28;20291;-75
2023/11/09 01:50:49;;;;;;;3.30;3.10;;;4.20;99.90;;;;;;5054770;28;20207;-74
2023/11/09 01:53:16;;;;;;;2.97;2.88;;;4.20;99.90;;;;;;5061492;28;20592;-75
2023/11/09 01:55:44;;;;;;;3.33;3.13;;;4.20;99.90;;;;;;5060869;28;20626;-75
2023/11/09 01:58:13;;;;;;;3.00;2.80;;;4.20;99.90;;;;;;5057668;28;20256;-75
2023/11/09 02:00:45;;;;;;;2.92;2.78;;;4.10;99.90;;;;;;5060919;28;20198;-75
2023/11/09 02:03:14;;;;;;;3.22;3.03;;;4.20;99.90;;;;;;5058352;28;20713;-75
2023/11/09 02:05:42;;;;;;;3.22;3.10;;;4.20;99.90;;;;;;5061956;28;20199;-76
2023/11/09 02:08:08;;;;;;;3.28;3.08;;;4.20;99.90;;;;;;5060343;28;20203;-75
2023/11/09 02:10:35;;;;;;;3.20;3.00;;;4.10;99.90;;;;;;5058767;28;20802;-75
2023/11/09 02:13:02;;;;;;;3.08;2.88;;;4.10;99.90;;;;;;5064102;28;20210;-74
2023/11/09 02:15:31;;;;;;;3.30;3.10;;;4.10;99.90;;;;;;5062391;28;20210;-74
2023/11/09 02:17:59;;;;;;;3.40;3.20;;;4.10;99.90;;;;;;5061474;28;20579;-75
2023/11/09 02:20:26;;;;;;;2.78;2.67;;;4.10;99.90;;;;;;5062826;28;20719;-76
2023/11/09 02:22:54;;;;;;;3.25;2.95;;;4.10;99.90;;;;;;5059230;28;20222;-74
2023/11/09 02:25:23;;;;;;;3.15;3.05;;;4.10;99.90;;;;;;5058389;28;20234;-76
2023/11/09 02:27:49;;;;;;;3.13;2.92;;;4.10;99.90;;;;;;5059070;28;20211;-75
2023/11/09 02:30:16;;;;;;;3.00;2.85;;;4.00;99.90;;;;;;5062726;28;20907;-76
2023/11/09 02:32:43;;;;;;;3.03;2.92;;;4.00;99.90;;;;;;5060614;28;20218;-76
2023/11/09 02:35:11;;;;;;;3.22;3.03;;;3.90;99.90;;;;;;5055306;28;20202;-75
2023/11/09 02:37:38;;;;;;;3.10;2.90;;;4.00;99.90;;;;;;5059410;28;20207;-74
2023/11/09 02:40:06;;;;;;;2.88;2.78;;;3.90;99.90;;;;;;5060159;28;20240;-75
2023/11/09 02:42:34;;;;;;;3.17;3.08;;;3.90;99.90;;;;;;5061942;28;20202;-75
2023/11/09 02:45:01;;;;;;;3.35;3.15;;;3.90;99.90;;;;;;5059414;28;20233;-75
2023/11/09 02:47:28;;;;;;;3.00;2.90;;;3.80;99.90;;;;;;5060667;28;20202;-75
2023/11/09 02:49:55;;;;;;;2.83;2.72;;;3.80;99.90;;;;;;5060066;28;20206;-74
2023/11/09 02:52:22;;;;;;;3.30;3.15;;;3.80;99.90;;;;;;5059458;28;20202;-75
2023/11/09 02:54:49;;;;;;;3.65;3.20;;;3.80;99.90;;;;;;5061769;28;20275;-75
2023/11/09 02:57:16;;;;;;;3.60;3.40;;;3.80;99.90;;;;;;5061696;28;20607;-75
2023/11/09 02:59:44;;;;;;;3.08;2.92;;;3.70;99.90;;;;;;5058773;28;20967;-74
2023/11/09 03:02:12;;;;;;;3.17;2.90;;;3.70;99.90;;;;;;5061195;28;20210;-76
2023/11/09 03:04:39;;;;;;;3.20;3.00;;;3.80;99.90;;;;;;5059820;28;20754;-75
2023/11/09 03:07:08;;;;;;;3.20;3.10;;;3.80;99.90;;;;;;5058374;28;20286;-75
2023/11/09 03:09:37;;;;;;;3.03;2.50;;;3.80;99.90;;;;;;5057719;28;20210;-76
2023/11/09 03:12:06;;;;;;;3.00;2.80;;;3.80;99.90;;;;;;5061646;28;20731;-76
2023/11/09 03:14:34;;;;;;;2.78;2.60;;;3.80;99.90;;;;;;5060348;28;20252;-75
2023/11/09 03:17:10;;;;;;;2.70;2.60;;;3.70;99.90;;;;;;5058831;28;20289;-75
2023/11/09 03:19:38;;;;;;;3.00;2.80;;;3.70;99.90;;;;;;5059733;28;20209;-76
2023/11/09 03:22:07;;;;;;;2.92;2.72;;;3.70;99.90;;;;;;5059561;28;20213;-75
2023/11/09 03:24:34;;;;;;;3.03;2.92;;;3.70;99.90;;;;;;5060022;28;20218;-75
2023/11/09 03:27:01;;;;;;;3.28;3.08;;;3.70;99.90;;;;;;5062527;28;20198;-74
2023/11/09 03:29:28;;;;;;;3.25;3.05;;;3.70;99.90;;;;;;5060567;28;20263;-75
2023/11/09 03:31:55;;;;;;;2.95;2.75;;;3.70;99.90;;;;;;5060399;28;20190;-74
2023/11/09 03:34:24;;;;;;;2.85;2.65;;;3.70;99.90;;;;;;5057928;28;20638;-75
2023/11/09 03:36:53;;;;;;;3.50;3.20;;;3.60;99.90;;;;;;5058677;28;20285;-76
2023/11/09 03:39:20;;;;;;;2.70;2.60;;;3.60;99.90;;;;;;5059489;28;20198;-74
2023/11/09 03:41:47;;;;;;;3.58;3.38;;;3.60;99.90;;;;;;5056697;28;20286;-75
2023/11/09 03:44:14;;;;;;;2.67;2.50;;;3.50;99.90;;;;;;5060514;28;20245;-76
2023/11/09 03:46:41;;;;;;;3.38;3.17;;;3.50;99.90;;;;;;5060487;28;20210;-75
2023/11/09 03:49:09;;;;;;;2.72;2.60;;;3.50;99.90;;;;;;5056330;28;20235;-76
2023/11/09 03:51:38;;;;;;;3.25;3.05;;;3.50;99.90;;;;;;5061055;28;20207;-76
2023/11/09 03:54:05;;;;;;;2.58;2.47;;;3.50;99.90;;;;;;5061664;28;20271;-77
2023/11/09 03:56:32;;;;;;;3.15;2.95;;;3.50;99.90;;;;;;5058334;28;20657;-76
2023/11/09 03:59:00;;;;;;;3.10;3.00;;;3.50;99.90;;;;;;5060274;28;20214;-75
2023/11/09 04:01:27;;;;;;;2.92;2.83;;;3.40;99.90;;;;;;5058739;28;20771;-75
2023/11/09 04:03:55;;;;;;;3.40;3.20;;;3.40;99.90;;;;;;5061171;28;20763;-75
2023/11/09 04:06:23;;;;;;;3.22;3.03;;;3.40;99.90;;;;;;5064174;28;20202;-75
2023/11/09 04:08:52;;;;;;;2.95;2.80;;;3.40;99.90;;;;;;5057856;28;20202;-75
2023/11/09 04:11:20;;;;;;;3.08;2.88;;;3.50;99.90;;;;;;5059426;28;20205;-76
2023/11/09 04:13:48;;;;;;;3.00;2.90;;;3.50;99.90;;;;;;5058363;28;20580;-76
2023/11/09 04:16:15;;;;;;;3.33;3.13;;;3.40;99.90;;;;;;5058244;28;20263;-75
2023/11/09 04:18:42;;;;;;;3.13;2.85;;;3.40;99.90;;;;;;5057688;28;20214;-76
2023/11/09 04:21:09;;;;;;;2.50;2.40;;;3.40;99.90;;;;;;5056541;28;20741;-75
2023/11/09 04:23:37;;;;;;;3.15;2.95;;;3.40;99.90;;;;;;5061657;28;20275;-75
2023/11/09 04:26:08;;;;;;;3.00;2.90;;;3.40;99.90;;;;;;5057548;28;20617;-75
2023/11/09 04:28:35;;;;;;;2.83;2.72;;;3.40;99.90;;;;;;5056928;28;20199;-77
2023/11/09 04:31:04;;;;;;;2.80;2.70;;;3.40;99.90;;;;;;5056243;28;20304;-76
2023/11/09 04:33:32;;;;;;;3.10;3.00;;;3.40;99.90;;;;;;5056452;28;20250;-75
2023/11/09 04:36:05;;;;;;;3.08;2.97;;;3.40;99.90;;;;;;5058004;28;20244;-76
2023/11/09 04:38:36;;;;;;;3.20;3.00;;;3.50;99.90;;;;;;5057667;28;20199;-76
2023/11/09 04:41:09;;;;;;;2.65;2.50;;;3.40;99.90;;;;;;5056072;28;20194;-75
2023/11/09 04:43:41;;;;;;;2.90;2.80;;;3.40;99.90;;;;;;5058427;28;20575;-75
2023/11/09 04:46:10;;;;;;;3.10;2.90;;;3.40;99.90;;;;;;5056679;28;20573;-74
2023/11/09 04:48:44;;;;;;;3.03;2.83;;;3.40;99.90;;;;;;5060749;28;20272;-76
2023/11/09 04:51:20;;;;;;;3.15;3.05;;;3.40;99.90;;;;;;5059063;28;20224;-75
2023/11/09 04:53:51;;;;;;;2.83;2.72;;;3.40;99.90;;;;;;5059254;28;20214;-76
2023/11/09 04:56:32;;;;;;;3.33;3.13;;;3.40;99.90;;;;;;5057222;28;20199;-75
2023/11/09 05:06:48;;;;;;;3.47;3.28;;;3.40;99.90;;;;;;5054636;28;20708;-76
2023/11/09 05:07:18;;;;;;;2.75;2.65;;;3.40;99.90;;;;;;5059584;28;20201;-75
2023/11/09 05:09:47;;;;;;;2.97;2.88;;;3.40;99.90;;;;;;5055812;28;20195;-75
2023/11/09 05:12:14;;;;;;;3.13;2.90;;;3.30;99.90;;;;;;5059597;28;20198;-75
2023/11/09 05:14:43;;;;;;;2.80;2.70;;;3.30;99.90;;;;;;5059286;28;20254;-75
2023/11/09 05:17:09;;;;;;;3.20;3.00;;;3.30;99.90;;;;;;5061297;28;20210;-75
2023/11/09 05:19:37;;;;;;;2.80;2.70;;;3.30;99.90;;;;;;5060320;28;20211;-76
2023/11/09 05:22:04;;;;;;;2.80;2.70;;;3.30;99.90;;;;;;5056300;28;20873;-75
2023/11/09 05:24:31;;;;;;;3.17;2.97;;;3.30;99.90;;;;;;5056188;28;20214;-76
2023/11/09 05:26:58;;;;;;;2.63;2.53;;;3.20;99.90;;;;;;5062175;28;20198;-78
2023/11/09 05:29:25;;;;;;;3.30;3.10;;;3.20;99.90;;;;;;5058656;28;20199;-76
2023/11/09 05:31:54;;;;;;;3.10;2.90;;;3.20;99.90;;;;;;5057547;28;20206;-75
2023/11/09 05:34:22;;;;;;;2.92;2.72;;;3.20;99.90;;;;;;5059172;28;20693;-75
2023/11/09 05:36:49;;;;;;;2.88;2.78;;;3.20;99.90;;;;;;5055669;28;20204;-74
2023/11/09 05:39:16;;;;;;;2.75;2.65;;;3.20;99.90;;;;;;5057797;28;20726;-75
2023/11/09 05:41:44;;;;;;;3.25;3.05;;;3.20;99.90;;;;;;5060964;28;20248;-73
2023/11/09 05:44:11;;;;;;;3.33;3.10;;;3.20;99.90;;;;;;5056891;28;20254;-75
2023/11/09 05:46:38;;;;;;;3.40;3.17;;;3.20;99.90;;;;;;5060275;28;20622;-75
2023/11/09 05:49:06;;;;;;;3.63;3.42;;;3.20;99.90;;;;;;5058801;28;20237;-75
2023/11/09 05:51:34;;;;;;;3.13;2.92;;;3.20;99.90;;;;;;5058255;28;20264;-76
2023/11/09 05:54:01;;;;;;;4.03;3.63;;;3.20;99.90;;;;;;5062451;28;20226;-76
2023/11/09 05:56:29;;;;;;;2.90;2.80;;;3.20;99.90;;;;;;5059087;28;20777;-76
2023/11/09 05:58:55;;;;;;;3.47;3.28;;;3.10;99.90;;;;;;5057690;28;20285;-74
2023/11/09 06:01:24;;;;;;;3.40;3.20;;;3.10;99.90;;;;;;5058960;28;20198;-75
2023/11/09 06:03:51;;;;;;;3.42;3.20;;;3.10;99.90;;;;;;5060591;28;20221;-75
2023/11/09 06:06:20;;;;;;;3.58;3.38;;;3.10;99.90;;;;;;5063092;28;20218;-75
2023/11/09 06:08:47;;;;;;;2.83;2.72;;;3.10;99.90;;;;;;5061425;28;20198;-76
2023/11/09 06:11:14;;;;;;;3.15;2.95;;;3.10;99.90;;;;;;5057550;28;20194;-75
2023/11/09 06:13:41;;;;;;;3.53;3.30;;;3.10;99.90;;;;;;5060211;28;20233;-76
2023/11/09 06:16:08;;;;;;;3.45;3.25;;;3.10;99.90;;;;;;5061975;28;20210;-75
2023/11/09 06:18:36;;;;;;;3.70;3.50;;;3.20;99.90;;;;;;5059346;28;20198;-76
2023/11/09 06:21:03;;;;;;;4.85;4.47;;;3.20;99.90;;;;;;5062054;28;20744;-75
2023/11/09 06:23:32;;;;;;;4.68;4.28;;;3.30;99.90;;;;;;5063557;28;20234;-76
2023/11/09 06:25:59;;;;;;;4.50;4.13;;;3.30;99.90;;;;;;5060666;28;20255;-75
2023/11/09 06:28:26;;;;;;;3.78;3.47;;;3.30;99.90;;;;;;5059154;28;20277;-74
2023/11/09 06:30:53;;;;;;;3.95;3.65;;;3.30;99.90;;;;;;5059916;28;20202;-77
2023/11/09 06:33:20;;;;;;;3.40;3.20;;;3.30;99.90;;;;;;5057289;28;20292;-76
2023/11/09 06:35:48;;;;;;;3.88;3.67;;;3.40;99.90;;;;;;5062138;28;20194;-74
2023/11/09 06:38:19;;;;;;;4.15;3.85;;;3.40;99.90;;;;;;5063002;28;20285;-74
2023/11/09 06:40:47;;;;;;;3.97;3.67;;;3.40;99.90;;;;;;5062802;28;20233;-76
2023/11/09 06:43:14;;;;;;;3.85;3.55;;;3.60;99.90;;;;;;5065037;28;20282;-74
2023/11/09 06:45:42;;;;;;;3.65;3.45;;;3.60;99.90;;;;;;5069945;28;20262;-76
2023/11/09 06:48:09;;;;;;;4.05;3.75;;;3.70;99.90;;;;;;5060640;28;20543;-77
2023/11/09 06:50:37;;;;;;;3.72;3.53;;;3.80;99.90;;;;;;5061627;28;20202;-76
2023/11/09 06:53:05;;;;;;;3.70;3.50;;;3.80;99.90;;;;;;5058804;28;20230;-77
2023/11/09 06:55:32;;;;;;;3.50;3.30;;;3.90;99.90;;;;;;5062815;28;20276;-76
2023/11/09 06:58:01;;;;;;;3.35;3.15;;;4.10;99.90;;;;;;5062163;28;20195;-74
2023/11/09 07:00:28;;;;;;;3.72;3.42;;;4.20;99.90;;;;;;5057703;28;20211;-74
2023/11/09 07:02:57;;;;;;;4.05;3.75;;;4.30;99.90;;;;;;5057448;28;20219;-74
2023/11/09 07:05:24;;;;;;;4.10;3.55;;;4.40;99.90;;;;;;5062961;28;20214;-74
2023/11/09 07:07:51;;;;;;;3.85;3.65;;;4.50;99.90;;;;;;5063050;28;20263;-75
2023/11/09 07:10:18;;;;;;;4.72;4.28;;;4.60;99.90;;;;;;5055703;28;20205;-75
2023/11/09 07:12:45;;;;;;;4.82;4.47;;;4.60;99.90;;;;;;5059034;28;20248;-76
2023/11/09 07:15:14;;;;;;;4.10;3.72;;;4.70;99.90;;;;;;5060721;28;20214;-75
2023/11/09 07:17:41;;;;;;;4.47;4.18;;;4.70;99.90;;;;;;5059947;28;20207;-75
2023/11/09 07:20:10;;;;;;;4.18;3.88;;;4.90;99.90;;;;;;5063741;28;20656;-76
2023/11/09 07:22:37;;;;;;;4.60;4.20;;;5.00;99.90;;;;;;5059693;28;20248;-76
2023/11/09 07:25:08;;;;;;;4.43;4.03;;;5.30;99.90;;;;;;5060740;28;20222;-76
2023/11/09 07:27:35;;;;;;;4.70;3.80;;;5.50;99.90;;;;;;5065088;28;20661;-76
2023/11/09 07:30:03;;;;;;;4.45;4.15;;;5.50;99.90;;;;;;5061318;28;20281;-75
2023/11/09 07:32:32;;;;;;;4.40;4.10;;;5.40;99.90;;;;;;5065230;28;20202;-77
2023/11/09 07:34:59;;;;;;;4.30;4.00;;;5.30;99.90;;;;;;5064211;28;20225;-75
2023/11/09 07:37:27;;;;;;;4.10;3.80;;;5.20;99.90;;;;;;5064919;28;20255;-74
2023/11/09 07:39:54;;;;;;;4.30;4.00;;;5.10;99.90;;;;;;5060697;28;20198;-74
2023/11/09 07:42:22;;;;;;;4.05;3.75;;;5.00;99.90;;;;;;5062455;28;20207;-75
2023/11/09 07:44:49;;;;;;;3.80;3.60;;;5.00;99.90;;;;;;5059452;28;20329;-74
2023/11/09 07:47:17;;;;;;;4.00;3.70;;;4.90;99.90;;;;;;5063803;28;20202;-75
2023/11/09 07:49:47;;;;;;;4.00;3.58;;;4.70;99.90;;;;;;5069900;28;20289;-75
2023/11/09 07:52:14;;;;;;;3.90;3.60;;;4.60;99.90;;;;;;5066280;28;20214;-74
2023/11/09 07:54:43;;;;;;;3.53;3.33;;;4.60;99.90;;;;;;5064600;28;20222;-75
2023/11/09 07:57:11;;;;;;;4.07;3.78;;;4.70;99.90;;;;;;5061819;28;20252;-76
2023/11/09 07:59:38;;;;;;;4.28;3.97;;;4.70;99.90;;;;;;5063599;28;20194;-75
2023/11/09 08:02:07;;;;;;;4.80;4.40;;;4.80;99.90;;;;;;5064873;28;20203;-76
2023/11/09 08:04:33;;;;;;;4.45;4.15;;;4.80;99.90;;;;;;5060252;28;20228;-76
2023/11/09 08:07:02;;;;;;;4.68;4.30;;;4.80;99.90;;;;;;5065462;28;20255;-75
2023/11/09 08:09:30;;;;;;;4.28;3.97;;;4.80;99.90;;;;;;5060713;28;20745;-76
2023/11/09 08:11:57;;;;;;;4.20;3.80;;;4.80;99.90;;;;;;5065449;28;20225;-75
2023/11/09 08:14:23;;;;;;;4.30;3.95;;;4.80;99.90;;;;;;5063688;28;20225;-77
2023/11/09 08:16:50;;;;;;;4.18;3.88;;;4.90;99.90;;;;;;5073954;28;20202;-74
2023/11/09 08:19:17;;;;;;;4.80;4.50;;;4.90;99.90;;;;;;5064877;28;20721;-76
2023/11/09 08:21:44;;;;;;;4.35;4.03;;;4.90;99.90;;;;;;5069303;28;20194;-77
2023/11/09 08:24:13;;;;;;;4.65;4.28;;;4.90;99.90;;;;;;5066056;28;20230;-75
2023/11/09 08:26:41;;;;;;;4.18;3.88;;;4.90;99.90;;;;;;5066302;28;20776;-75
2023/11/09 08:29:08;;;;;;;4.70;4.30;;;4.90;99.90;;;;;;5064201;28;20298;-75
2023/11/09 08:31:38;;;;;;;5.55;4.78;;;4.90;99.90;;;;;;5063788;28;20245;-76
2023/11/09 08:34:06;;;;;;;4.20;3.88;;;4.80;99.90;;;;;;5062989;28;20343;-75
2023/11/09 08:36:33;;;;;;;4.57;4.20;;;4.80;99.90;;;;;;5062676;28;20237;-75
2023/11/09 08:39:02;;;;;;;5.07;3.65;;;4.90;99.90;;;;;;5064416;28;20255;-75
2023/11/09 08:41:41;;;;;;;4.40;4.10;;;4.90;99.90;;;;;;5064374;28;20218;-75
2023/11/09 09:03:21;;;;;;;8.00;4.53;;;5.00;99.90;;;;;;5064044;28;20605;-76
2023/11/09 09:05:48;;;;;;;4.72;4.43;;;5.10;99.90;;;;;;5063414;28;20278;-75
2023/11/09 09:08:15;;;;;;;4.70;4.40;;;5.00;99.90;;;;;;5066356;28;20248;-75
2023/11/09 09:10:42;;;;;;;4.68;4.38;;;5.00;99.90;;;;;;5061359;28;20199;-74
2023/11/09 09:13:09;;;;;;;4.15;3.90;;;5.00;99.90;;;;;;5060545;28;20275;-76
2023/11/09 09:15:37;;;;;;;4.30;4.00;;;5.00;99.90;;;;;;5061327;28;20305;-74
2023/11/09 09:18:09;;;;;;;4.72;4.43;;;5.00;99.90;;;;;;5061573;28;20202;-75
2023/11/09 09:20:39;;;;;;;4.55;4.15;;;5.00;99.90;;;;;;5061616;28;20198;-75
2023/11/09 09:23:07;;;;;;;4.88;4.47;;;5.00;99.90;;;;;;5059981;28;20697;-75
2023/11/09 09:25:34;;;;;;;4.47;4.07;;;5.00;99.90;;;;;;5062647;28;20291;-75
2023/11/09 09:28:04;;;;;;;6.68;4.13;;;5.00;99.90;;;;;;5060727;28;20197;-75
2023/11/09 09:30:31;;;;;;;4.38;4.07;;;5.00;99.90;;;;;;5061429;28;20213;-74
2023/11/09 09:32:59;;;;;;;4.45;4.15;;;5.00;99.90;;;;;;5051157;28;20222;-74
2023/11/09 09:35:28;;;;;;;4.22;3.92;;;5.00;99.90;;;;;;5060882;28;20214;-75
2023/11/09 09:37:59;;;;;;;4.95;4.57;;;5.10;99.90;;;;;;5062917;28;20198;-76
2023/11/09 09:40:29;;;;;;;5.10;4.70;;;5.10;99.90;;;;;;5061712;28;20194;-75
2023/11/09 09:42:57;;;;;;;5.03;4.63;;;5.10;99.90;;;;;;5061976;28;20839;-75
2023/11/09 09:45:26;;;;;;;7.10;4.30;;;5.10;99.90;;;;;;5061160;28;20199;-75
2023/11/09 09:47:56;;;;;;;4.15;3.85;;;5.10;99.90;;;;;;5064659;28;20211;-74
2023/11/09 09:50:24;;;;;;;4.60;4.30;;;5.10;99.90;;;;;;5058170;28;20197;-76
2023/11/09 09:52:55;;;;;;;4.00;3.70;;;5.20;99.90;;;;;;5063006;28;20206;-75
2023/11/09 09:55:26;;;;;;;4.85;3.90;;;5.30;99.90;;;;;;5062687;28;20280;-74
2023/11/09 09:57:54;;;;;;;4.10;3.80;;;5.20;99.90;;;;;;5059969;28;20214;-75
2023/11/09 10:00:26;;;;;;;4.28;3.97;;;5.20;99.90;;;;;;5055400;28;20202;-75
2023/11/09 10:02:55;;;;;;;4.40;4.10;;;5.20;99.90;;;;;;5057038;28;20233;-74
2023/11/09 10:05:24;;;;;;;3.95;3.65;;;5.30;99.90;;;;;;5060354;28;20737;-76
2023/11/09 10:08:03;;;;;;;4.00;3.70;;;5.30;99.90;;;;;;5052941;28;20202;-76
2023/11/09 10:10:33;;;;;;;5.10;4.70;;;5.40;99.90;;;;;;5054780;28;20210;-77
2023/11/09 10:13:01;;;;;;;5.00;4.60;;;5.40;99.90;;;;;;5055907;28;20356;-76
2023/11/09 10:15:30;;;;;;;5.85;5.35;;;5.30;99.90;;;;;;5056724;28;20227;-76
2023/11/09 10:17:57;;;;;;;5.47;5.07;;;5.30;99.90;;;;;;5054220;28;20924;-75
2023/11/09 10:20:25;;;;;;;8.45;5.00;;;5.30;99.90;;;;;;5056145;28;20198;-76
2023/11/09 10:22:57;;;;;;;4.28;3.97;;;5.30;99.90;;;;;;5054201;28;20301;-74
2023/11/09 10:25:27;;;;;;;4.53;4.22;;;5.30;99.90;;;;;;5054504;28;20205;-75
2023/11/09 10:28:00;;;;;;;4.32;4.03;;;5.30;99.90;;;;;;5057402;28;20265;-75
2023/11/09 10:30:29;;;;;;;4.20;3.90;;;5.30;99.90;;;;;;5055562;28;20242;-76
2023/11/09 10:33:05;;;;;;;4.40;4.10;;;5.40;99.90;;;;;;5053579;28;21450;-76
2023/11/09 10:35:32;;;;;;;4.63;4.32;;;5.40;99.90;;;;;;5056014;28;20263;-75
2023/11/09 10:38:01;;;;;;;4.00;3.70;;;5.50;99.90;;;;;;5051835;28;20195;-74
2023/11/09 10:40:31;;;;;;;4.97;4.57;;;5.50;99.90;;;;;;5057841;28;20203;-75
2023/11/09 10:43:01;;;;;;;4.55;4.15;;;5.40;99.90;;;;;;5055464;28;20272;-75
2023/11/09 10:45:30;;;;;;;4.40;4.10;;;5.40;99.90;;;;;;5058171;28;20281;-77
2023/11/09 10:48:00;;;;;;;3.85;3.63;;;5.40;99.90;;;;;;5060380;28;20301;-75
2023/11/09 10:50:28;;;;;;;4.65;4.20;;;5.30;99.90;;;;;;5055342;28;20314;-78
2023/11/09 10:52:57;;;;;;;3.90;3.60;;;5.30;99.90;;;;;;5057823;28;20225;-75
2023/11/09 10:55:25;;;;;;;3.88;3.65;;;5.40;99.90;;;;;;5055757;28;20683;-78
2023/11/09 10:57:54;;;;;;;4.53;3.60;;;5.50;99.90;;;;;;5057830;28;20671;-75
2023/11/09 11:00:31;;;;;;;4.05;3.85;;;5.50;99.90;;;;;;5055316;28;20415;-76
2023/11/09 11:03:07;;;;;;;4.88;4.45;;;5.60;99.90;;;;;;5051965;28;20230;-76
2023/11/09 11:05:40;;;;;;;4.63;4.25;;;5.70;99.90;;;;;;5057575;28;20624;-76
2023/11/09 11:08:12;;;;;;;4.47;4.13;;;6.10;99.90;;;;;;5056638;28;20226;-75
2023/11/09 11:10:46;;;;;;;4.88;4.47;;;6.30;99.90;;;;;;5056971;28;20286;-74
2023/11/09 11:13:17;;;;;;;4.72;4.32;;;6.60;99.90;;;;;;5065011;28;20265;-75
2023/11/09 11:16:00;;;;;;;4.50;4.10;;;6.60;99.90;;;;;;5056382;28;20214;-75
2023/11/09 11:18:44;;;;;;;4.65;4.32;;;6.50;99.90;;;;;;5053872;28;20319;-75
2023/11/09 11:21:25;;;;;;;4.40;4.07;;;6.30;99.90;;;;;;5053185;28;20222;-74
2023/11/09 11:24:27;;;;;;;5.00;4.60;;;6.10;99.90;;;;;;5051667;28;20218;-75
2023/11/09 11:27:06;;;;;;;4.38;4.07;;;6.10;99.90;;;;;;5053673;28;20202;-74
2023/11/09 11:29:36;;;;;;;4.07;3.78;;;6.00;99.90;;;;;;5054763;28;20202;-75
2023/11/09 11:32:08;;;;;;;3.72;3.38;;;6.00;99.90;;;;;;5052316;28;20259;-75
2023/11/09 11:34:49;;;;;;;4.15;3.85;;;6.00;99.90;;;;;;5052769;28;20765;-76
2023/11/09 11:37:28;;;;;;;3.63;3.33;;;6.10;99.90;;;;;;5051033;28;20214;-75
2023/11/09 11:39:56;;;;;;;4.10;3.80;;;6.00;99.90;;;;;;5053065;28;20234;-74
2023/11/09 11:42:25;;;;;;;3.97;3.63;;;6.00;99.90;;;;;;5056368;28;20276;-75
2023/11/09 11:44:53;;;;;;;4.22;3.92;;;6.00;99.90;;;;;;5054187;28;20222;-77
2023/11/09 11:47:23;;;;;;;4.20;3.90;;;6.00;99.90;;;;;;5059130;28;20287;-75
2023/11/09 11:49:51;;;;;;;4.00;3.70;;;6.10;99.90;;;;;;5053905;28;20211;-75
2023/11/09 11:52:23;;;;;;;4.28;3.92;;;6.10;99.90;;;;;;5055929;28;20293;-75
2023/11/09 11:54:51;;;;;;;4.50;4.10;;;6.00;99.90;;;;;;5051012;28;20210;-75
2023/11/09 11:57:19;;;;;;;4.60;4.20;;;6.00;99.90;;;;;;5054325;28;20245;-74
2023/11/09 12:00:04;;;;;;;4.25;3.80;;;6.00;99.90;;;;;;5053538;28;20202;-74
2023/11/09 12:02:33;;;;;;;4.22;3.92;;;6.00;99.90;;;;;;5049789;28;20209;-75
2023/11/09 12:05:00;;;;;;;4.53;4.18;;;6.00;99.90;;;;;;5056197;28;20213;-75
2023/11/09 12:07:29;;;;;;;4.40;4.00;;;6.00;99.90;;;;;;5055420;28;20206;-76
2023/11/09 12:09:57;;;;;;;5.05;3.97;;;5.90;99.90;;;;;;5055207;28;20763;-76
2023/11/09 12:12:26;;;;;;;3.88;3.58;;;5.90;99.90;;;;;;5051326;28;20198;-74
2023/11/09 12:14:54;;;;;;;6.63;5.60;;;5.90;99.90;;;;;;5053426;28;20305;-75
2023/11/09 12:17:25;;;;;;;7.57;6.07;;;6.00;99.90;;;;;;5057082;28;20689;-76
2023/11/09 12:19:54;;;;;;;5.65;4.97;;;6.10;99.90;;;;;;5052988;28;20228;-74
2023/11/09 12:22:22;;;;;;;6.05;5.28;;;6.20;99.90;;;;;;5053967;28;20510;-74
2023/11/09 12:25:00;;;;;;;6.28;5.60;;;6.20;99.90;;;;;;5053259;28;20248;-75
2023/11/09 12:27:27;;;;;;;6.20;4.63;;;6.40;99.90;;;;;;5054800;28;20205;-75
2023/11/09 12:29:54;;;;;;;5.60;5.10;;;6.40;99.90;;;;;;5052890;28;20289;-76
2023/11/09 12:32:21;;;;;;;5.60;5.00;;;6.50;99.90;;;;;;5053956;28;20210;-74
2023/11/09 12:34:48;;;;;;;5.20;4.80;;;6.60;99.90;;;;;;5049019;28;20284;-74
2023/11/09 12:37:17;;;;;;;5.43;4.93;;;6.70;99.90;;;;;;5052308;28;20620;-74
2023/11/09 12:39:45;;;;;;;5.00;4.50;;;6.70;99.90;;;;;;5047363;28;20203;-74
2023/11/09 12:42:19;;;;;;;5.22;4.75;;;6.80;99.90;;;;;;5051558;28;20210;-75
2023/11/09 12:44:46;;;;;;;5.97;5.47;;;6.80;99.90;;;;;;5050683;28;20284;-74
2023/11/09 12:47:16;;;;;;;5.93;5.40;;;6.80;99.90;;;;;;5051910;28;20285;-76
2023/11/09 12:49:45;;;;;;;6.05;5.45;;;6.80;99.90;;;;;;5053852;28;20238;-74
2023/11/09 12:52:12;;;;;;;5.45;4.95;;;6.80;99.90;;;;;;5051548;28;20293;-75
2023/11/09 12:54:43;;;;;;;5.50;4.90;;;6.90;99.90;;;;;;5043781;28;20232;-75
2023/11/09 12:57:11;;;;;;;5.25;4.75;;;6.90;99.90;;;;;;5048937;28;20219;-74
2023/11/09 12:59:41;;;;;;;4.40;4.10;;;6.90;99.90;;;;;;5046676;28;20198;-74
2023/11/09 13:02:14;;;;;;;4.28;3.95;;;6.90;99.90;;;;;;5050782;28;20777;-74
2023/11/09 13:04:41;;;;;;;4.80;4.40;;;6.90;99.90;;;;;;5052117;28;20225;-75
2023/11/09 13:07:11;;;;;;;5.45;4.40;;;6.90;99.90;;;;;;5051007;28;20284;-74
2023/11/09 13:09:41;;;;;;;4.32;4.03;;;6.90;99.90;;;;;;5047471;28;20708;-75
2023/11/09 13:12:29;;;;;;;4.40;4.10;;;6.80;99.90;;;;;;5050765;28;20206;-75
2023/11/09 13:15:14;;;;;;;4.18;3.88;;;6.80;99.90;;;;;;5051453;28;20239;-74
2023/11/09 13:17:53;;;;;;;4.63;4.13;;;6.80;99.90;;;;;;5051823;28;20932;-75
2023/11/09 13:20:28;;;;;;;6.25;5.32;;;6.80;99.90;;;;;;5051790;28;20283;-75
2023/11/09 13:23:09;;;;;;;7.80;7.00;;;6.80;99.90;;;;;;5053661;28;20236;-74
2023/11/09 13:25:39;;;;;;;8.27;7.47;;;6.80;99.90;;;;;;5048426;28;20721;-74
2023/11/09 13:28:09;;;;;;;6.60;6.00;;;6.90;99.90;;;;;;5048191;28;20698;-74
2023/11/09 13:30:50;;;;;;;6.10;5.55;;;7.00;99.90;;;;;;5050419;28;20206;-74